Time;durP1;ratioP1;P1;durP2;ratioP2;P2;SDS_P1;SDS_P2;PMS_P1;PMS_P2;Temp;Humidity;BMP_temperature;BMP_pressure;BME280_temperature;BME280_humidity;BME280_pressure;Samples;Min_cycle;Max_cycle;Signal;HPM_P1;HPM_P2
2022/06/10 00:01:25;;;;;;;;;;;;;;;;;;5021071;28;19948;-78
2022/06/10 00:03:52;;;;;;;;;;;;;;;;;;5015332;28;20373;-76
2022/06/10 00:06:18;;;;;;;;;;;;;;;;;;5057645;22;19980;-78
2022/06/10 00:08:45;;;;;;;;;;;;;;;;;;5035670;28;19921;-78
2022/06/10 00:11:12;;;;;;;;;;;;;;;;;;5035114;28;20405;-78
2022/06/10 00:13:40;;;;;;;;;;;;;;;;;;5036615;28;19999;-78
2022/06/10 00:16:08;;;;;;;;;;;;;;;;;;5035602;28;19927;-77
2022/06/10 00:18:35;;;;;;;;;;;;;;;;;;5034130;28;20430;-77
2022/06/10 00:21:03;;;;;;;;;;;;;;;;;;5034811;28;20288;-77
2022/06/10 00:23:29;;;;;;;;;;;;;;;;;;5034802;28;19975;-78
2022/06/10 00:25:56;;;;;;;;;;;;;;;;;;5034960;28;20011;-77
2022/06/10 00:28:25;;;;;;;;;;;;;;;;;;5035821;28;20414;-78
2022/06/10 00:31:13;;;;;;;;;;;;;;;;;;5043215;28;20011;-77
2022/06/10 00:33:41;;;;;;;;;;;;;;;;;;5040206;28;19920;-78
2022/06/10 00:36:09;;;;;;;;;;;;;;;;;;5033592;28;20012;-78
2022/06/10 00:38:35;;;;;;;;;;;;;;;;;;5033712;28;20269;-78
2022/06/10 00:41:02;;;;;;;;;;;;;;;;;;5034110;28;20024;-77
2022/06/10 00:43:30;;;;;;;;;;;;;;;;;;5033769;28;19921;-77
2022/06/10 00:45:59;;;;;;;;;;;;;;;;;;5033124;28;20003;-77
2022/06/10 00:48:28;;;;;;;;;;;;;;;;;;5034580;28;19972;-77
2022/06/10 00:50:57;;;;;;;;;;;;;;;;;;5033648;28;20007;-78
2022/06/10 00:53:27;;;;;;;;;;;;;;;;;;5033798;28;19924;-78
2022/06/10 00:55:55;;;;;;;;;;;;;;;;;;5033381;28;20016;-77
2022/06/10 00:58:24;;;;;;;;;;;;;;;;;;5029836;28;19932;-77
2022/06/10 01:03:54;;;;;;;;;;;;;;;;;;5012814;28;19987;-78
2022/06/10 01:06:28;;;;;;;;;;;;;;;;;;4993054;28;20013;-78
2022/06/10 01:08:55;;;;;;;;;;;;;;;;;;4995557;28;20016;-78
2022/06/10 01:11:29;;;;;;;;;;;;;;;;;;4996042;28;19945;-78
2022/06/10 01:14:02;;;;;;;;;;;;;;;;;;4996732;28;19972;-78
2022/06/10 01:16:35;;;;;;;;;;;;;;;;;;4996423;28;20444;-78
2022/06/10 01:19:09;;;;;;;;;;;;;;;;;;4996035;28;19928;-78
2022/06/10 01:21:52;;;;;;;;;;;;;;;;;;4995908;28;19922;-78
2022/06/10 01:24:45;;;;;;;;;;;;;;;;;;4996156;28;19921;-78
2022/06/10 01:30:20;;;;;;;;;;;;;;;;;;4994996;28;20016;-78
2022/06/10 01:32:54;;;;;;;;;;;;;;;;;;4995929;28;20024;-78
2022/06/10 01:35:23;;;;;;;;;;;;;;;;;;4995578;28;20364;-78
2022/06/10 01:37:55;;;;;;;;;;;;;;;;;;4996229;28;19921;-78
2022/06/10 01:40:24;;;;;;;;;;;;;;;;;;4994926;28;19953;-78
2022/06/10 01:42:55;;;;;;;;;;;;;;;;;;4994932;28;19989;-78
2022/06/10 01:45:30;;;;;;;;;;;;;;;;;;4995275;28;20008;-78
2022/06/10 01:48:01;;;;;;;;;;;;;;;;;;4995881;28;20440;-78
2022/06/10 01:50:31;;;;;;;;;;;;;;;;;;4996158;28;19921;-78
2022/06/10 01:52:59;;;;;;;;;;;;;;;;;;4996412;28;20016;-78
2022/06/10 01:55:30;;;;;;;;;;;;;;;;;;4995349;28;20345;-78
2022/06/10 01:57:58;;;;;;;;;;;;;;;;;;4995752;28;19969;-78
2022/06/10 02:00:27;;;;;;;;;;;;;;;;;;5014856;28;19932;-78
2022/06/10 02:02:56;;;;;;;;;;;;;;;;;;5015501;28;19922;-78
2022/06/10 02:05:27;;;;;;;;;;;;;;;;;;5015376;28;19928;-78
2022/06/10 02:07:56;;;;;;;;;;;;;;;;;;5015650;28;19922;-78
2022/06/10 02:10:26;;;;;;;;;;;;;;;;;;5016145;28;19921;-78
2022/06/10 02:12:54;;;;;;;;;;;;;;;;;;5019655;28;19996;-78
2022/06/10 02:15:23;;;;;;;;;;;;;;;;;;5017341;28;19922;-78
2022/06/10 02:17:52;;;;;;;;;;;;;;;;;;5014197;28;19968;-78
2022/06/10 02:20:20;;;;;;;;;;;;;;;;;;5013999;28;19963;-78
2022/06/10 02:22:49;;;;;;;;;;;;;;;;;;5014941;28;19921;-78
2022/06/10 02:25:19;;;;;;;;;;;;;;;;;;5015140;28;19945;-78
2022/06/10 02:27:47;;;;;;;;;;;;;;;;;;5014936;28;20016;-78
2022/06/10 02:30:18;;;;;;;;;;;;;;;;;;5018082;28;19925;-78
2022/06/10 02:32:45;;;;;;;;;;;;;;;;;;5018565;28;19972;-78
2022/06/10 02:35:15;;;;;;;;;;;;;;;;;;5019201;28;20016;-78
2022/06/10 02:37:44;;;;;;;;;;;;;;;;;;5018262;28;20410;-78
2022/06/10 02:40:19;;;;;;;;;;;;;;;;;;5017728;28;20432;-78
2022/06/10 02:42:49;;;;;;;;;;;;;;;;;;5018465;28;19927;-78
2022/06/10 02:45:22;;;;;;;;;;;;;;;;;;5018189;28;20007;-78
2022/06/10 02:47:51;;;;;;;;;;;;;;;;;;5017771;28;19965;-78
2022/06/10 02:50:17;;;;;;;;;;;;;;;;;;5018636;28;20367;-78
2022/06/10 02:52:44;;;;;;;;;;;;;;;;;;5017923;28;19928;-78
2022/06/10 02:55:14;;;;;;;;;;;;;;;;;;5017683;28;20004;-78
2022/06/10 03:03:19;;;;;;;;;;;;;;;;;;4997377;28;20060;-78
2022/06/10 03:05:51;;;;;;;;;;;;;;;;;;4997292;28;19922;-78
2022/06/10 03:08:23;;;;;;;;;;;;;;;;;;4997681;28;20017;-78
2022/06/10 03:10:54;;;;;;;;;;;;;;;;;;4998041;28;19929;-78
2022/06/10 03:13:38;;;;;;;;;;;;;;;;;;4998893;28;19965;-78
2022/06/10 03:16:13;;;;;;;;;;;;;;;;;;4998142;28;19968;-78
2022/06/10 03:18:43;;;;;;;;;;;;;;;;;;4997571;28;19976;-77
2022/06/10 03:21:15;;;;;;;;;;;;;;;;;;4996837;28;19976;-78
2022/06/10 03:23:47;;;;;;;;;;;;;;;;;;4997900;28;19921;-78
2022/06/10 03:26:17;;;;;;;;;;;;;;;;;;4997722;28;20381;-78
2022/06/10 03:28:50;;;;;;;;;;;;;;;;;;4998223;28;20012;-78
2022/06/10 03:31:17;;;;;;;;;;;;;;;;;;4997448;28;19968;-78
2022/06/10 03:33:47;;;;;;;;;;;;;;;;;;4997464;28;20018;-78
2022/06/10 03:36:15;;;;;;;;;;;;;;;;;;4997173;28;20357;-78
2022/06/10 03:38:42;;;;;;;;;;;;;;;;;;4997615;28;20008;-78
2022/06/10 03:41:09;;;;;;;;;;;;;;;;;;4996459;28;19985;-78
2022/06/10 03:43:36;;;;;;;;;;;;;;;;;;4997485;28;19979;-78
2022/06/10 03:46:06;;;;;;;;;;;;;;;;;;4996138;28;20400;-78
2022/06/10 03:48:35;;;;;;;;;;;;;;;;;;4996238;28;20033;-78
2022/06/10 03:51:01;;;;;;;;;;;;;;;;;;4996957;28;19922;-78
2022/06/10 03:53:28;;;;;;;;;;;;;;;;;;4997824;28;20009;-78
2022/06/10 03:55:54;;;;;;;;;;;;;;;;;;4997858;28;19973;-78
2022/06/10 03:58:21;;;;;;;;;;;;;;;;;;5000592;28;20440;-78
2022/06/10 04:00:48;;;;;;;;;;;;;;;;;;5016570;28;19929;-78
2022/06/10 04:03:16;;;;;;;;;;;;;;;;;;5015919;28;19957;-78
2022/06/10 04:05:43;;;;;;;;;;;;;;;;;;5016024;28;19975;-78
2022/06/10 04:08:09;;;;;;;;;;;;;;;;;;5015416;28;19921;-78
2022/06/10 04:10:36;;;;;;;;;;;;;;;;;;5016192;28;19945;-78
2022/06/10 04:13:03;;;;;;;;;;;;;;;;;;5015887;28;19921;-78
2022/06/10 04:15:29;;;;;;;;;;;;;;;;;;5016438;28;19921;-78
2022/06/10 04:17:57;;;;;;;;;;;;;;;;;;5016865;28;19969;-78
2022/06/10 04:20:26;;;;;;;;;;;;;;;;;;5016820;28;20016;-78
2022/06/10 04:22:52;;;;;;;;;;;;;;;;;;5016715;28;19928;-78
2022/06/10 04:25:19;;;;;;;;;;;;;;;;;;5016603;28;20036;-78
2022/06/10 04:27:45;;;;;;;;;;;;;;;;;;5015492;28;19925;-78
2022/06/10 04:30:18;;;;;;;;;;;;;;;;;;5014346;28;19921;-76
2022/06/10 04:32:44;;;;;;;;;;;;;;;;;;5014859;28;19960;-78
2022/06/10 04:35:11;;;;;;;;;;;;;;;;;;5015208;28;19929;-78
2022/06/10 04:37:38;;;;;;;;;;;;;;;;;;5015213;28;19921;-78
2022/06/10 04:40:06;;;;;;;;;;;;;;;;;;5014922;28;20011;-78
2022/06/10 04:42:32;;;;;;;;;;;;;;;;;;5015051;28;20008;-78
2022/06/10 04:44:59;;;;;;;;;;;;;;;;;;5015272;28;19921;-78
2022/06/10 04:47:25;;;;;;;;;;;;;;;;;;5015950;28;19991;-78
2022/06/10 04:49:51;;;;;;;;;;;;;;;;;;5015421;28;20024;-77
2022/06/10 04:52:18;;;;;;;;;;;;;;;;;;5014676;28;20027;-77
2022/06/10 04:54:46;;;;;;;;;;;;;;;;;;5015048;28;19921;-78
2022/06/10 04:57:12;;;;;;;;;;;;;;;;;;5014764;28;20351;-78
2022/06/10 04:59:39;;;;;;;;;;;;;;;;;;5014968;28;19921;-78
2022/06/10 05:02:05;;;;;;;;;;;;;;;;;;5015217;28;19988;-78
2022/06/10 05:04:32;;;;;;;;;;;;;;;;;;5015695;28;20359;-78
2022/06/10 05:07:00;;;;;;;;;;;;;;;;;;5014001;28;19926;-77
2022/06/10 05:09:26;;;;;;;;;;;;;;;;;;5014023;28;19980;-77
2022/06/10 05:11:54;;;;;;;;;;;;;;;;;;5012781;28;19928;-77
2022/06/10 05:14:20;;;;;;;;;;;;;;;;;;5013215;28;19968;-78
2022/06/10 05:16:50;;;;;;;;;;;;;;;;;;5013382;28;19969;-77
2022/06/10 05:19:16;;;;;;;;;;;;;;;;;;5013235;28;20015;-76
2022/06/10 05:21:43;;;;;;;;;;;;;;;;;;5013276;28;20385;-77
2022/06/10 05:24:09;;;;;;;;;;;;;;;;;;5013082;28;19979;-77
2022/06/10 05:26:36;;;;;;;;;;;;;;;;;;5013311;28;20023;-77
2022/06/10 05:29:04;;;;;;;;;;;;;;;;;;5013774;28;20001;-77
2022/06/10 05:31:30;;;;;;;;;;;;;;;;;;5012902;28;19922;-77
2022/06/10 05:36:40;;;;;;;;;;;;;;;;;;5013048;28;19929;-76
2022/06/10 05:39:07;;;;;;;;;;;;;;;;;;5013295;28;19922;-77
2022/06/10 05:44:19;;;;;;;;;;;;;;;;;;5013483;28;20343;-78
2022/06/10 05:46:45;;;;;;;;;;;;;;;;;;5012804;28;19932;-78
2022/06/10 05:49:12;;;;;;;;;;;;;;;;;;5012839;28;19921;-78
2022/06/10 05:51:39;;;;;;;;;;;;;;;;;;5012998;28;20023;-78
2022/06/10 05:54:05;;;;;;;;;;;;;;;;;;5012754;28;19976;-78
2022/06/10 05:56:32;;;;;;;;;;;;;;;;;;5013787;28;19921;-78
2022/06/10 05:58:58;;;;;;;;;;;;;;;;;;5013206;28;19922;-77
2022/06/10 06:01:26;;;;;;;;;;;;;;;;;;5013593;28;20016;-78
2022/06/10 06:03:53;;;;;;;;;;;;;;;;;;5015857;28;19921;-77
2022/06/10 06:06:19;;;;;;;;;;;;;;;;;;5017552;28;20553;-78
2022/06/10 06:08:48;;;;;;;;;;;;;;;;;;5031923;22;19921;-79
2022/06/10 06:11:15;;;;;;;;;;;;;;;;;;5018249;28;19972;-79
2022/06/10 06:13:42;;;;;;;;;;;;;;;;;;5017831;28;20016;-78
2022/06/10 06:16:09;;;;;;;;;;;;;;;;;;5017793;28;20442;-79
2022/06/10 06:18:37;;;;;;;;;;;;;;;;;;5018570;28;20020;-78
2022/06/10 06:21:04;;;;;;;;;;;;;;;;;;5019613;28;20009;-78
2022/06/10 06:23:30;;;;;;;;;;;;;;;;;;5018819;28;19949;-78
2022/06/10 06:25:57;;;;;;;;;;;;;;;;;;5017681;28;19925;-78
2022/06/10 06:28:23;;;;;;;;;;;;;;;;;;5017440;28;19928;-78
2022/06/10 06:30:50;;;;;;;;;;;;;;;;;;5016699;28;19921;-78
2022/06/10 06:33:16;;;;;;;;;;;;;;;;;;5017539;28;19976;-78
2022/06/10 06:35:48;;;;;;;;;;;;;;;;;;5021198;28;20028;-78
2022/06/10 06:38:15;;;;;;;;;;;;;;;;;;5021409;28;19922;-80
2022/06/10 06:40:43;;;;;;;;;;;;;;;;;;5017439;28;19967;-78
2022/06/10 06:43:09;;;;;;;;;;;;;;;;;;5020393;28;20044;-78
2022/06/10 06:45:36;;;;;;;;;;;;;;;;;;5020186;28;20020;-79
2022/06/10 06:48:03;;;;;;;;;;;;;;;;;;5020575;28;19921;-79
2022/06/10 06:50:31;;;;;;;;;;;;;;;;;;5019548;28;20293;-78
2022/06/10 06:52:59;;;;;;;;;;;;;;;;;;5018760;28;19922;-78
2022/06/10 06:55:25;;;;;;;;;;;;;;;;;;5017700;28;20020;-79
2022/06/10 06:57:52;;;;;;;;;;;;;;;;;;5017388;28;19922;-78
2022/06/10 07:00:19;;;;;;;;;;;;;;;;;;5016928;28;19921;-78
2022/06/10 07:02:46;;;;;;;;;;;;;;;;;;5017466;28;20101;-78
2022/06/10 07:05:13;;;;;;;;;;;;;;;;;;5017407;28;19929;-79
2022/06/10 07:07:39;;;;;;;;;;;;;;;;;;5029473;28;19922;-77
2022/06/10 07:10:08;;;;;;;;;;;;;;;;;;5028598;28;19972;-79
2022/06/10 07:12:34;;;;;;;;;;;;;;;;;;5034092;28;19921;-77
2022/06/10 07:15:21;;;;;;;;;;;;;;;;;;5027851;28;20044;-78
2022/06/10 07:17:49;;;;;;;;;;;;;;;;;;5030162;28;19925;-78
2022/06/10 07:20:19;;;;;;;;;;;;;;;;;;5027401;28;19948;-77
2022/06/10 07:22:45;;;;;;;;;;;;;;;;;;5026744;28;19980;-77
2022/06/10 07:25:14;;;;;;;;;;;;;;;;;;5035766;28;19921;-78
2022/06/10 07:27:41;;;;;;;;;;;;;;;;;;5034996;28;19931;-78
2022/06/10 07:30:08;;;;;;;;;;;;;;;;;;5024028;28;19964;-78
2022/06/10 07:32:35;;;;;;;;;;;;;;;;;;5029527;28;19988;-77
2022/06/10 07:35:01;;;;;;;;;;;;;;;;;;5031864;28;19928;-78
2022/06/10 07:37:28;;;;;;;;;;;;;;;;;;5028578;28;20008;-78
2022/06/10 07:39:54;;;;;;;;;;;;;;;;;;5030807;28;19929;-77
2022/06/10 07:42:21;;;;;;;;;;;;;;;;;;5043102;28;19985;-77
2022/06/10 07:44:48;;;;;;;;;;;;;;;;;;5046879;28;20355;-77
2022/06/10 07:47:15;;;;;;;;;;;;;;;;;;5039233;28;20002;-77
2022/06/10 07:49:41;;;;;;;;;;;;;;;;;;5038078;28;20481;-78
2022/06/10 07:52:09;;;;;;;;;;;;;;;;;;5039153;28;19928;-78
2022/06/10 07:54:36;;;;;;;;;;;;;;;;;;5038294;28;20419;-78
2022/06/10 07:57:03;;;;;;;;;;;;;;;;;;5037716;28;20376;-78
2022/06/10 07:59:31;;;;;;;;;;;;;;;;;;5024370;28;19926;-79
2022/06/10 08:01:58;;;;;;;;;;;;;;;;;;5016951;28;20450;-78
2022/06/10 08:04:25;;;;;;;;;;;;;;;;;;5017774;28;19925;-77
2022/06/10 08:06:53;;;;;;;;;;;;;;;;;;5019773;28;19952;-78
2022/06/10 08:09:21;;;;;;;;;;;;;;;;;;5017176;28;20038;-77
2022/06/10 08:11:47;;;;;;;;;;;;;;;;;;5017809;28;20372;-78
2022/06/10 08:14:14;;;;;;;;;;;;;;;;;;5015977;28;19953;-77
2022/06/10 08:16:42;;;;;;;;;;;;;;;;;;5016227;28;20004;-77
2022/06/10 08:19:08;;;;;;;;;;;;;;;;;;5016577;28;20012;-78
2022/06/10 08:24:20;;;;;;;;;;;;;;;;;;5025691;28;19928;-77
2022/06/10 08:26:46;;;;;;;;;;;;;;;;;;5024758;28;19921;-76
2022/06/10 08:29:13;;;;;;;;;;;;;;;;;;5020415;28;19921;-78
2022/06/10 08:31:39;;;;;;;;;;;;;;;;;;5019729;28;20479;-77
2022/06/10 08:34:07;;;;;;;;;;;;;;;;;;5027302;28;19973;-78
2022/06/10 08:36:34;;;;;;;;;;;;;;;;;;5020994;28;19921;-78
2022/06/10 08:39:01;;;;;;;;;;;;;;;;;;5017471;28;19922;-77
2022/06/10 08:41:31;;;;;;;;;;;;;;;;;;5017930;28;19922;-77
2022/06/10 08:44:08;;;;;;;;;;;;;;;;;;5016011;28;20028;-77
2022/06/10 08:46:45;;;;;;;;;;;;;;;;;;5015891;28;19921;-77
2022/06/10 08:49:22;;;;;;;;;;;;;;;;;;5017635;28;20013;-77
2022/06/10 08:51:53;;;;;;;;;;;;;;;;;;5026207;28;19925;-77
2022/06/10 08:54:21;;;;;;;;;;;;;;;;;;5031508;28;19967;-78
2022/06/10 08:56:50;;;;;;;;;;;;;;;;;;5027360;28;19988;-78
2022/06/10 08:59:23;;;;;;;;;;;;;;;;;;5024368;28;20012;-77
2022/06/10 09:01:51;;;;;;;;;;;;;;;;;;5013986;28;20420;-77
2022/06/10 09:04:31;;;;;;;;;;;;;;;;;;5014232;28;19925;-77
2022/06/10 09:06:59;;;;;;;;;;;;;;;;;;5014595;28;19921;-77
2022/06/10 09:09:27;;;;;;;;;;;;;;;;;;5022385;28;19994;-78
2022/06/10 09:11:57;;;;;;;;;;;;;;;;;;5025715;28;20384;-78
2022/06/10 09:14:24;;;;;;;;;;;;;;;;;;5015879;28;20415;-78
2022/06/10 09:16:54;;;;;;;;;;;;;;;;;;5016822;28;20440;-78
2022/06/10 09:19:24;;;;;;;;;;;;;;;;;;5016906;28;19927;-78
2022/06/10 09:21:58;;;;;;;;;;;;;;;;;;5015742;28;19975;-78
2022/06/10 09:24:26;;;;;;;;;;;;;;;;;;5014647;28;20008;-79
2022/06/10 09:26:55;;;;;;;;;;;;;;;;;;5017780;28;19928;-78
2022/06/10 09:29:21;;;;;;;;;;;;;;;;;;5019293;28;20118;-78
2022/06/10 09:31:53;;;;;;;;;;;;;;;;;;5017989;28;19989;-78
2022/06/10 09:34:27;;;;;;;;;;;;;;;;;;5018608;28;19921;-78
2022/06/10 09:36:58;;;;;;;;;;;;;;;;;;5016570;28;19975;-78
2022/06/10 09:42:18;;;;;;;;;;;;;;;;;;5018638;28;19968;-78
2022/06/10 09:44:50;;;;;;;;;;;;;;;;;;5020577;28;19949;-78
2022/06/10 09:47:20;;;;;;;;;;;;;;;;;;5022111;28;20020;-78
2022/06/10 09:50:07;;;;;;;;;;;;;;;;;;5020665;28;19971;-78
2022/06/10 09:52:37;;;;;;;;;;;;;;;;;;5019411;28;20348;-79
2022/06/10 09:55:12;;;;;;;;;;;;;;;;;;5019749;28;19956;-78
2022/06/10 09:57:59;;;;;;;;;;;;;;;;;;5019040;28;20021;-78
2022/06/10 10:00:31;;;;;;;;;;;;;;;;;;5019143;28;19921;-78
2022/06/10 10:03:04;;;;;;;;;;;;;;;;;;5020416;28;20009;-78
2022/06/10 10:05:35;;;;;;;;;;;;;;;;;;5018688;28;19979;-78
2022/06/10 10:08:08;;;;;;;;;;;;;;;;;;5019588;28;19989;-78
2022/06/10 10:10:38;;;;;;;;;;;;;;;;;;5019045;28;19921;-78
2022/06/10 10:13:21;;;;;;;;;;;;;;;;;;5019997;28;19964;-78
2022/06/10 10:15:52;;;;;;;;;;;;;;;;;;5019763;28;20016;-77
2022/06/10 10:18:26;;;;;;;;;;;;;;;;;;5019897;28;19979;-77
2022/06/10 10:21:00;;;;;;;;;;;;;;;;;;5017451;28;19928;-78
2022/06/10 10:23:31;;;;;;;;;;;;;;;;;;5019044;28;19922;-78
2022/06/10 10:25:57;;;;;;;;;;;;;;;;;;5018839;28;19921;-78
2022/06/10 10:28:25;;;;;;;;;;;;;;;;;;5018284;28;20020;-78
2022/06/10 10:31:00;;;;;;;;;;;;;;;;;;5017656;28;19929;-77
2022/06/10 10:33:26;;;;;;;;;;;;;;;;;;5018239;28;19925;-77
2022/06/10 10:35:54;;;;;;;;;;;;;;;;;;5015193;28;20467;-76
2022/06/10 10:38:31;;;;;;;;;;;;;;;;;;5016124;28;19921;-78
2022/06/10 10:40:58;;;;;;;;;;;;;;;;;;5014346;28;19928;-78
2022/06/10 10:43:28;;;;;;;;;;;;;;;;;;5010536;28;20017;-77
2022/06/10 10:45:57;;;;;;;;;;;;;;;;;;5012288;28;19921;-79
2022/06/10 10:48:25;;;;;;;;;;;;;;;;;;5017230;28;20015;-80
2022/06/10 10:50:53;;;;;;;;;;;;;;;;;;5014291;28;20295;-75
2022/06/10 10:53:24;;;;;;;;;;;;;;;;;;5015325;28;19972;-77
2022/06/10 10:55:54;;;;;;;;;;;;;;;;;;5013951;28;20396;-77
2022/06/10 10:58:25;;;;;;;;;;;;;;;;;;5014796;28;19921;-77
2022/06/10 11:00:55;;;;;;;;;;;;;;;;;;5013627;28;19922;-77
2022/06/10 11:03:24;;;;;;;;;;;;;;;;;;5017307;28;20009;-78
2022/06/10 11:05:53;;;;;;;;;;;;;;;;;;5018113;28;20013;-78
2022/06/10 11:08:33;;;;;;;;;;;;;;;;;;5013253;28;19936;-77
2022/06/10 11:11:03;;;;;;;;;;;;;;;;;;5017678;28;19925;-78
2022/06/10 11:13:36;;;;;;;;;;;;;;;;;;5020132;28;20004;-78
2022/06/10 11:16:19;;;;;;;;;;;;;;;;;;5018248;28;19928;-78
2022/06/10 11:18:47;;;;;;;;;;;;;;;;;;5018887;28;20701;-77
2022/06/10 11:21:14;;;;;;;;;;;;;;;;;;5017581;28;19921;-78
2022/06/10 11:23:50;;;;;;;;;;;;;;;;;;5016901;28;20008;-77
2022/06/10 11:26:20;;;;;;;;;;;;;;;;;;5015360;28;20008;-78
2022/06/10 11:28:47;;;;;;;;;;;;;;;;;;5018954;28;20012;-77
2022/06/10 11:31:18;;;;;;;;;;;;;;;;;;5034376;28;19925;-78
2022/06/10 11:33:46;;;;;;;;;;;;;;;;;;5036066;28;19927;-78
2022/06/10 11:36:14;;;;;;;;;;;;;;;;;;5036926;28;19960;-78
2022/06/10 11:38:49;;;;;;;;;;;;;;;;;;5036645;28;20451;-78
2022/06/10 11:41:22;;;;;;;;;;;;;;;;;;5035947;28;19927;-78
2022/06/10 11:43:50;;;;;;;;;;;;;;;;;;5038105;28;20016;-78
2022/06/10 11:46:18;;;;;;;;;;;;;;;;;;5044886;28;19921;-77
2022/06/10 11:48:47;;;;;;;;;;;;;;;;;;5039756;28;20001;-78
2022/06/10 11:51:15;;;;;;;;;;;;;;;;;;5042106;28;20016;-77
2022/06/10 11:53:46;;;;;;;;;;;;;;;;;;5051390;28;19921;-77
2022/06/10 12:01:49;;;;;;;;;;;;;;;;;;5014435;28;20336;-78
2022/06/10 12:04:18;;;;;;;;;;;;;;;;;;5019363;28;20004;-78
2022/06/10 12:06:49;;;;;;;;;;;;;;;;;;5019121;28;19925;-78
2022/06/10 12:09:20;;;;;;;;;;;;;;;;;;5018942;28;19960;-78
2022/06/10 12:11:50;;;;;;;;;;;;;;;;;;5018283;28;19976;-78
2022/06/10 12:14:21;;;;;;;;;;;;;;;;;;5016411;28;19921;-78
2022/06/10 12:16:49;;;;;;;;;;;;;;;;;;5017541;28;19921;-78
2022/06/10 12:19:20;;;;;;;;;;;;;;;;;;5017246;28;19925;-79
2022/06/10 12:21:46;;;;;;;;;;;;;;;;;;5015471;28;19921;-78
2022/06/10 12:24:14;;;;;;;;;;;;;;;;;;5014412;28;19927;-78
2022/06/10 12:26:47;;;;;;;;;;;;;;;;;;5015066;28;19993;-78
2022/06/10 12:29:16;;;;;;;;;;;;;;;;;;5013002;28;19988;-78
2022/06/10 12:31:52;;;;;;;;;;;;;;;;;;5013618;28;19929;-77
2022/06/10 12:34:23;;;;;;;;;;;;;;;;;;5014868;28;20391;-78
2022/06/10 12:36:52;;;;;;;;;;;;;;;;;;5047148;22;19963;-76
2022/06/10 12:39:20;;;;;;;;;;;;;;;;;;5030703;28;19920;-75
2022/06/10 12:41:49;;;;;;;;;;;;;;;;;;5031417;28;19956;-77
2022/06/10 12:44:19;;;;;;;;;;;;;;;;;;5031580;28;20007;-77
2022/06/10 12:46:48;;;;;;;;;;;;;;;;;;5031606;28;19987;-77
2022/06/10 12:49:20;;;;;;;;;;;;;;;;;;5031056;28;20023;-77
2022/06/10 12:51:53;;;;;;;;;;;;;;;;;;5031488;28;20689;-76
2022/06/10 12:54:24;;;;;;;;;;;;;;;;;;5030711;28;20027;-76
2022/06/10 12:57:10;;;;;;;;;;;;;;;;;;5030408;28;19991;-77
2022/06/10 12:59:37;;;;;;;;;;;;;;;;;;5016006;28;20455;-76
2022/06/10 13:02:27;;;;;;;;;;;;;;;;;;5031633;28;19999;-77
2022/06/10 13:04:57;;;;;;;;;;;;;;;;;;5030638;28;19921;-76
2022/06/10 13:07:28;;;;;;;;;;;;;;;;;;5031075;28;19921;-75
2022/06/10 13:09:54;;;;;;;;;;;;;;;;;;5030427;28;19927;-78
2022/06/10 13:12:37;;;;;;;;;;;;;;;;;;5031617;28;19960;-77
2022/06/10 13:15:24;;;;;;;;;;;;;;;;;;5031305;28;19980;-77
2022/06/10 13:17:52;;;;;;;;;;;;;;;;;;5031386;28;20049;-77
2022/06/10 13:20:24;;;;;;;;;;;;;;;;;;5030980;28;19925;-76
2022/06/10 13:23:11;;;;;;;;;;;;;;;;;;5032652;28;20474;-79
2022/06/10 13:25:38;;;;;;;;;;;;;;;;;;5041746;28;20311;-78
2022/06/10 13:28:12;;;;;;;;;;;;;;;;;;5043027;28;19921;-78
2022/06/10 13:30:39;;;;;;;;;;;;;;;;;;5039308;28;19944;-78
2022/06/10 13:33:07;;;;;;;;;;;;;;;;;;5041580;28;19921;-78
2022/06/10 13:35:37;;;;;;;;;;;;;;;;;;5041196;28;19959;-78
2022/06/10 13:38:05;;;;;;;;;;;;;;;;;;5039815;28;19944;-77
2022/06/10 13:40:31;;;;;;;;;;;;;;;;;;5041182;28;19931;-77
2022/06/10 13:42:59;;;;;;;;;;;;;;;;;;5039143;28;19921;-78
2022/06/10 13:45:28;;;;;;;;;;;;;;;;;;5039673;28;19921;-78
2022/06/10 13:47:56;;;;;;;;;;;;;;;;;;5040109;28;19976;-77
2022/06/10 13:50:36;;;;;;;;;;;;;;;;;;5040719;28;20419;-79
2022/06/10 13:53:19;;;;;;;;;;;;;;;;;;5040642;28;19927;-78
2022/06/10 13:55:51;;;;;;;;;;;;;;;;;;5042226;28;20020;-78
2022/06/10 13:58:19;;;;;;;;;;;;;;;;;;5038199;28;21310;-78
2022/06/10 14:00:47;;;;;;;;;;;;;;;;;;5040959;28;19952;-77
2022/06/10 14:03:24;;;;;;;;;;;;;;;;;;5039388;28;19929;-79
2022/06/10 14:05:58;;;;;;;;;;;;;;;;;;5041585;28;19921;-77
2022/06/10 14:08:28;;;;;;;;;;;;;;;;;;5036493;28;19940;-76
2022/06/10 14:10:58;;;;;;;;;;;;;;;;;;5034379;28;19921;-78
2022/06/10 14:13:28;;;;;;;;;;;;;;;;;;5033437;28;20295;-78
2022/06/10 14:15:57;;;;;;;;;;;;;;;;;;5035241;28;19928;-78
2022/06/10 14:18:24;;;;;;;;;;;;;;;;;;5034199;28;19960;-76
2022/06/10 14:20:53;;;;;;;;;;;;;;;;;;5033043;28;19948;-76
2022/06/10 14:23:24;;;;;;;;;;;;;;;;;;5033961;28;19921;-78
2022/06/10 14:26:03;;;;;;;;;;;;;;;;;;5039719;28;20007;-77
2022/06/10 14:28:30;;;;;;;;;;;;;;;;;;5038124;28;19968;-76
2022/06/10 14:30:59;;;;;;;;;;;;;;;;;;5037260;28;20019;-78
2022/06/10 14:33:27;;;;;;;;;;;;;;;;;;5035116;28;20517;-78
2022/06/10 14:36:06;;;;;;;;;;;;;;;;;;5035614;28;19921;-77
2022/06/10 14:38:33;;;;;;;;;;;;;;;;;;5036149;28;20424;-77
2022/06/10 14:41:03;;;;;;;;;;;;;;;;;;5036387;28;20323;-77
2022/06/10 14:43:30;;;;;;;;;;;;;;;;;;5038999;28;19968;-77
2022/06/10 14:46:05;;;;;;;;;;;;;;;;;;5039144;28;19933;-77
2022/06/10 14:48:32;;;;;;;;;;;;;;;;;;5040242;28;19948;-77
2022/06/10 14:51:10;;;;;;;;;;;;;;;;;;5043519;28;19921;-77
2022/06/10 14:53:37;;;;;;;;;;;;;;;;;;5051922;28;19921;-76
2022/06/10 14:56:10;;;;;;;;;;;;;;;;;;5049763;28;19921;-78
2022/06/10 14:58:37;;;;;;;;;;;;;;;;;;5044651;28;19975;-76
2022/06/10 15:01:03;;;;;;;;;;;;;;;;;;5036264;28;20016;-78
2022/06/10 15:03:30;;;;;;;;;;;;;;;;;;5035399;28;20008;-78
2022/06/10 15:08:42;;;;;;;;;;;;;;;;;;5034744;28;20375;-77
2022/06/10 15:11:11;;;;;;;;;;;;;;;;;;5034015;28;19921;-77
2022/06/10 15:13:38;;;;;;;;;;;;;;;;;;5034366;28;20276;-77
2022/06/10 15:16:05;;;;;;;;;;;;;;;;;;5034216;28;19960;-77
2022/06/10 15:18:32;;;;;;;;;;;;;;;;;;5045530;28;19921;-77
2022/06/10 15:20:59;;;;;;;;;;;;;;;;;;5049647;28;19921;-78
2022/06/10 15:23:26;;;;;;;;;;;;;;;;;;5044786;28;19927;-77
2022/06/10 15:25:52;;;;;;;;;;;;;;;;;;5040979;28;20450;-78
2022/06/10 15:28:22;;;;;;;;;;;;;;;;;;5045014;28;19964;-78
2022/06/10 15:30:49;;;;;;;;;;;;;;;;;;5041363;28;19948;-77
2022/06/10 15:33:16;;;;;;;;;;;;;;;;;;5043606;28;19921;-76
2022/06/10 15:41:12;;;;;;;;;;;;;;;;;;5043864;28;20007;-79
2022/06/10 15:43:40;;;;;;;;;;;;;;;;;;5039033;28;19983;-79
2022/06/10 15:46:11;;;;;;;;;;;;;;;;;;5041687;28;20011;-79
2022/06/10 15:48:38;;;;;;;;;;;;;;;;;;5039257;28;19921;-78
2022/06/10 15:51:05;;;;;;;;;;;;;;;;;;5037609;28;19921;-79
2022/06/10 15:53:32;;;;;;;;;;;;;;;;;;5037320;28;19975;-78
2022/06/10 15:58:45;;;;;;;;;;;;;;;;;;5038129;28;19932;-78
2022/06/10 16:01:12;;;;;;;;;;;;;;;;;;5038164;28;19931;-78
2022/06/10 16:03:40;;;;;;;;;;;;;;;;;;5039576;28;19975;-78
2022/06/10 16:06:10;;;;;;;;;;;;;;;;;;5035961;28;19975;-78
2022/06/10 16:08:36;;;;;;;;;;;;;;;;;;5040871;28;19932;-79
2022/06/10 16:11:02;;;;;;;;;;;;;;;;;;5040703;28;19921;-78
2022/06/10 16:13:32;;;;;;;;;;;;;;;;;;5044144;28;19955;-77
2022/06/10 16:16:00;;;;;;;;;;;;;;;;;;5038348;28;19927;-77
2022/06/10 16:18:28;;;;;;;;;;;;;;;;;;5033486;28;20012;-78
2022/06/10 16:20:56;;;;;;;;;;;;;;;;;;5031966;28;19995;-77
2022/06/10 16:23:23;;;;;;;;;;;;;;;;;;5032540;28;20350;-77
2022/06/10 16:25:51;;;;;;;;;;;;;;;;;;5031292;28;19971;-77
2022/06/10 16:28:21;;;;;;;;;;;;;;;;;;5031313;28;19927;-76
2022/06/10 16:30:47;;;;;;;;;;;;;;;;;;5032338;28;20020;-77
2022/06/10 16:33:17;;;;;;;;;;;;;;;;;;5031281;28;20003;-78
2022/06/10 16:35:44;;;;;;;;;;;;;;;;;;5030542;28;19925;-77
2022/06/10 16:38:12;;;;;;;;;;;;;;;;;;5032623;28;20007;-77
2022/06/10 16:40:39;;;;;;;;;;;;;;;;;;5031757;28;19956;-77
2022/06/10 16:43:05;;;;;;;;;;;;;;;;;;5033158;28;19956;-76
2022/06/10 16:45:33;;;;;;;;;;;;;;;;;;5032289;28;20308;-77
2022/06/10 16:48:00;;;;;;;;;;;;;;;;;;5030027;28;19991;-76
2022/06/10 16:50:28;;;;;;;;;;;;;;;;;;5031446;28;20364;-77
2022/06/10 16:52:54;;;;;;;;;;;;;;;;;;5032041;28;20015;-77
2022/06/10 16:55:21;;;;;;;;;;;;;;;;;;5032557;28;20027;-76
2022/06/10 16:57:50;;;;;;;;;;;;;;;;;;5034004;28;19944;-77
2022/06/10 17:00:20;;;;;;;;;;;;;;;;;;5032904;28;19967;-80
2022/06/10 17:02:49;;;;;;;;;;;;;;;;;;5033706;28;19968;-76
2022/06/10 17:05:17;;;;;;;;;;;;;;;;;;5033306;28;20004;-77
2022/06/10 17:07:45;;;;;;;;;;;;;;;;;;5032812;28;19920;-76
2022/06/10 17:10:12;;;;;;;;;;;;;;;;;;5032842;28;19967;-76
2022/06/10 17:12:42;;;;;;;;;;;;;;;;;;5032900;28;19967;-77
2022/06/10 17:15:13;;;;;;;;;;;;;;;;;;5032710;28;19982;-76
2022/06/10 17:17:40;;;;;;;;;;;;;;;;;;5035282;28;19928;-77
2022/06/10 17:20:07;;;;;;;;;;;;;;;;;;5036322;28;19921;-77
2022/06/10 17:22:37;;;;;;;;;;;;;;;;;;5036840;28;19966;-77
2022/06/10 17:25:08;;;;;;;;;;;;;;;;;;5036846;28;19928;-76
2022/06/10 17:27:38;;;;;;;;;;;;;;;;;;5036052;28;19921;-77
2022/06/10 17:30:06;;;;;;;;;;;;;;;;;;5032241;28;20545;-77
2022/06/10 17:32:36;;;;;;;;;;;;;;;;;;5033547;28;20012;-77
2022/06/10 17:35:03;;;;;;;;;;;;;;;;;;5036901;28;19947;-77
2022/06/10 17:37:33;;;;;;;;;;;;;;;;;;5037972;28;20004;-78
2022/06/10 17:40:00;;;;;;;;;;;;;;;;;;5036509;28;19928;-76